createdAt,value
2022-09-24T00:01:49.002Z,100.00
2022-09-24T00:04:16.963Z,100.00
2022-09-24T00:06:46.401Z,100.00
2022-09-24T00:09:16.268Z,100.00
2022-09-24T00:11:45.817Z,100.00
2022-09-24T00:14:15.359Z,100.00
2022-09-24T00:16:44.281Z,100.00
2022-09-24T00:19:14.029Z,100.00
2022-09-24T00:21:42.857Z,100.00
2022-09-24T00:24:34.900Z,100.00
2022-09-24T00:27:03.254Z,100.00
2022-09-24T00:29:34.352Z,100.00
2022-09-24T00:32:03.722Z,100.00
2022-09-24T00:34:32.043Z,100.00
2022-09-24T00:37:00.246Z,100.00
2022-09-24T00:39:28.633Z,100.00
2022-09-24T00:41:56.563Z,100.00
2022-09-24T00:44:53.664Z,100.00
2022-09-24T00:47:32.032Z,100.00
2022-09-24T00:50:18.645Z,100.00
2022-09-24T00:52:52.817Z,100.00
2022-09-24T00:55:23.658Z,100.00
2022-09-24T00:57:56.498Z,100.00
2022-09-24T01:00:26.533Z,100.00
2022-09-24T01:03:01.037Z,100.00
2022-09-24T01:05:29.710Z,100.00
2022-09-24T01:07:58.172Z,100.00
2022-09-24T01:10:51.693Z,100.00
2022-09-24T01:13:43.277Z,100.00
2022-09-24T01:16:20.727Z,100.00
2022-09-24T01:18:58.059Z,100.00
2022-09-24T01:21:33.845Z,100.00
2022-09-24T01:24:43.325Z,100.00
2022-09-24T01:27:17.568Z,100.00
2022-09-24T01:30:02.476Z,100.00
2022-09-24T01:32:37.335Z,100.00
2022-09-24T01:35:11.798Z,100.00
2022-09-24T01:37:42.786Z,100.00
2022-09-24T01:40:12.726Z,100.00
2022-09-24T01:42:44.515Z,100.00
2022-09-24T01:45:17.407Z,100.00
2022-09-24T01:47:45.999Z,100.00
2022-09-24T01:50:17.180Z,100.00
2022-09-24T01:52:51.416Z,100.00
2022-09-24T01:55:25.600Z,100.00
2022-09-24T01:57:57.624Z,100.00
2022-09-24T02:00:28.146Z,100.00
2022-09-24T02:03:00.981Z,100.00
2022-09-24T02:05:34.614Z,100.00
2022-09-24T02:08:08.181Z,100.00
2022-09-24T02:10:46.442Z,100.00
2022-09-24T02:13:19.097Z,100.00
2022-09-24T02:15:52.447Z,100.00
2022-09-24T02:18:25.316Z,100.00
2022-09-24T02:20:54.377Z,100.00
2022-09-24T02:23:24.386Z,100.00
2022-09-24T02:25:57.956Z,100.00
2022-09-24T02:28:26.724Z,100.00
2022-09-24T02:31:02.877Z,100.00
2022-09-24T02:33:50.688Z,100.00
2022-09-24T02:36:18.808Z,100.00
2022-09-24T02:38:47.381Z,100.00
2022-09-24T02:41:16.088Z,100.00
2022-09-24T02:43:44.234Z,100.00
2022-09-24T02:46:13.578Z,100.00
2022-09-24T02:48:41.704Z,100.00
2022-09-24T02:51:09.892Z,100.00
2022-09-24T02:53:37.801Z,100.00
2022-09-24T02:56:07.694Z,100.00
2022-09-24T02:58:37.361Z,100.00
2022-09-24T03:01:05.665Z,100.00
2022-09-24T03:03:35.014Z,100.00
2022-09-24T03:06:02.948Z,100.00
2022-09-24T03:08:33.131Z,100.00
2022-09-24T03:11:01.028Z,100.00
2022-09-24T03:13:28.949Z,100.00
2022-09-24T03:15:57.080Z,100.00
2022-09-24T03:18:25.185Z,100.00
2022-09-24T03:20:58.268Z,100.00
2022-09-24T03:23:26.552Z,100.00
2022-09-24T03:25:54.860Z,100.00
2022-09-24T03:28:23.330Z,100.00
2022-09-24T03:31:02.745Z,100.00
2022-09-24T03:33:32.548Z,100.00
2022-09-24T03:36:04.291Z,100.00
2022-09-24T03:38:32.237Z,100.00
2022-09-24T03:41:01.276Z,100.00
2022-09-24T03:43:29.586Z,100.00
2022-09-24T03:45:57.549Z,100.00
2022-09-24T03:48:27.144Z,100.00
2022-09-24T03:50:55.428Z,100.00
2022-09-24T03:53:24.826Z,100.00
2022-09-24T03:55:56.017Z,100.00
2022-09-24T03:58:24.999Z,100.00
2022-09-24T04:00:54.186Z,100.00
2022-09-24T04:03:22.692Z,100.00
2022-09-24T04:05:52.073Z,100.00
2022-09-24T04:08:20.167Z,100.00
2022-09-24T04:10:50.317Z,100.00
2022-09-24T04:13:19.466Z,100.00
2022-09-24T04:15:48.129Z,100.00
2022-09-24T04:18:16.231Z,100.00
2022-09-24T04:20:44.281Z,100.00
2022-09-24T04:23:12.844Z,100.00
2022-09-24T04:25:41.542Z,100.00
2022-09-24T04:28:12.375Z,100.00
2022-09-24T04:30:40.587Z,100.00
2022-09-24T04:33:08.771Z,100.00
2022-09-24T04:35:37.344Z,100.00
2022-09-24T04:38:06.287Z,100.00
2022-09-24T04:40:34.417Z,100.00
2022-09-24T04:43:06.093Z,100.00
2022-09-24T04:45:35.603Z,100.00
2022-09-24T04:48:03.537Z,100.00
2022-09-24T04:50:33.277Z,100.00
2022-09-24T04:53:02.438Z,100.00
2022-09-24T04:55:32.162Z,100.00
2022-09-24T04:58:00.454Z,100.00
2022-09-24T05:00:28.448Z,100.00
2022-09-24T05:03:10.274Z,100.00
2022-09-24T05:05:38.693Z,100.00
2022-09-24T05:08:06.830Z,100.00
2022-09-24T05:10:34.768Z,100.00
2022-09-24T05:13:03.215Z,100.00
2022-09-24T05:15:31.281Z,100.00
2022-09-24T05:18:00.569Z,100.00
2022-09-24T05:20:28.507Z,100.00
2022-09-24T05:22:56.478Z,100.00
2022-09-24T05:25:24.548Z,100.00
2022-09-24T05:27:53.320Z,100.00
2022-09-24T05:30:23.139Z,100.00
2022-09-24T05:32:52.439Z,100.00
2022-09-24T05:35:22.835Z,100.00
2022-09-24T05:37:53.387Z,100.00
2022-09-24T05:40:39.973Z,100.00
2022-09-24T05:43:07.995Z,100.00
2022-09-24T05:45:35.949Z,100.00
2022-09-24T05:48:04.257Z,100.00
2022-09-24T05:50:34.919Z,100.00
2022-09-24T05:53:03.031Z,100.00
2022-09-24T05:55:32.513Z,100.00
2022-09-24T05:58:04.809Z,100.00
2022-09-24T06:00:32.738Z,100.00
2022-09-24T06:03:08.279Z,100.00
2022-09-24T06:05:37.764Z,100.00
2022-09-24T06:08:06.784Z,100.00
2022-09-24T06:10:34.725Z,100.00
2022-09-24T06:13:02.652Z,100.00
2022-09-24T06:15:31.050Z,100.00
2022-09-24T06:17:59.027Z,100.00
2022-09-24T06:20:27.285Z,100.00
2022-09-24T06:22:58.513Z,100.00
2022-09-24T06:25:27.021Z,100.00
2022-09-24T06:28:00.718Z,100.00
2022-09-24T06:30:30.133Z,100.00
2022-09-24T06:33:03.254Z,100.00
2022-09-24T06:35:31.213Z,100.00
2022-09-24T06:38:00.613Z,100.00
2022-09-24T06:40:32.497Z,100.00
2022-09-24T06:43:03.734Z,100.00
2022-09-24T06:45:31.708Z,100.00
2022-09-24T06:48:02.239Z,100.00
2022-09-24T06:50:33.292Z,100.00
2022-09-24T06:53:06.540Z,100.00
2022-09-24T06:55:35.933Z,100.00
2022-09-24T06:58:06.305Z,100.00
2022-09-24T07:00:34.883Z,100.00
2022-09-24T07:03:03.095Z,100.00
2022-09-24T07:05:31.069Z,100.00
2022-09-24T07:07:59.008Z,100.00
2022-09-24T07:10:28.632Z,100.00
2022-09-24T07:12:56.766Z,100.00
2022-09-24T07:15:24.726Z,100.00
2022-09-24T07:17:56.579Z,100.00
2022-09-24T07:20:24.973Z,100.00
2022-09-24T07:22:52.915Z,100.00
2022-09-24T07:25:20.948Z,100.00
2022-09-24T07:27:50.354Z,100.00
2022-09-24T07:30:18.773Z,100.00
2022-09-24T07:32:46.751Z,100.00
2022-09-24T07:35:15.418Z,100.00
2022-09-24T07:37:43.344Z,100.00
2022-09-24T07:40:12.023Z,100.00
2022-09-24T07:42:48.416Z,100.00
2022-09-24T07:45:18.350Z,100.00
2022-09-24T07:47:46.401Z,100.00
2022-09-24T07:50:14.340Z,100.00
2022-09-24T07:52:42.288Z,100.00
2022-09-24T07:55:10.711Z,100.00
2022-09-24T07:57:39.392Z,100.00
2022-09-24T08:00:09.056Z,100.00
2022-09-24T08:02:40.867Z,100.00
2022-09-24T08:05:09.618Z,100.00
2022-09-24T08:07:37.561Z,100.00
2022-09-24T08:10:06.293Z,100.00
2022-09-24T08:12:34.576Z,100.00
2022-09-24T08:15:02.537Z,100.00
2022-09-24T08:17:30.517Z,100.00
2022-09-24T08:20:00.172Z,100.00
2022-09-24T08:22:28.152Z,100.00
2022-09-24T08:24:57.929Z,100.00
2022-09-24T08:27:26.337Z,100.00
2022-09-24T08:29:54.419Z,100.00
2022-09-24T08:32:22.510Z,100.00
2022-09-24T08:34:52.665Z,100.00
2022-09-24T08:37:22.181Z,100.00
2022-09-24T08:39:50.209Z,100.00
2022-09-24T08:42:34.905Z,100.00
2022-09-24T08:45:21.502Z,100.00
2022-09-24T08:47:54.973Z,100.00
2022-09-24T08:50:25.561Z,100.00
2022-09-24T08:53:14.581Z,100.00
2022-09-24T08:55:46.750Z,100.00
2022-09-24T08:58:29.807Z,100.00
2022-09-24T09:01:03.781Z,100.00
2022-09-24T09:03:38.255Z,100.00
2022-09-24T09:06:13.374Z,100.00
2022-09-24T09:09:09.267Z,100.00
2022-09-24T09:11:40.747Z,100.00
2022-09-24T09:14:17.638Z,100.00
2022-09-24T09:16:51.524Z,100.00
2022-09-24T09:19:22.255Z,100.00
2022-09-24T09:21:54.468Z,100.00
2022-09-24T09:24:31.316Z,100.00
2022-09-24T09:26:59.659Z,100.00
2022-09-24T09:29:28.867Z,100.00
2022-09-24T09:32:09.988Z,100.00
2022-09-24T09:34:52.871Z,100.00
2022-09-24T09:37:29.577Z,100.00
2022-09-24T09:40:10.931Z,100.00
2022-09-24T09:42:40.559Z,100.00
2022-09-24T09:45:32.558Z,100.00
2022-09-24T09:48:03.140Z,100.00
2022-09-24T09:50:37.656Z,100.00
2022-09-24T09:53:06.277Z,100.00
2022-09-24T09:55:38.313Z,100.00
2022-09-24T09:58:19.565Z,100.00
2022-09-24T10:00:49.769Z,100.00
2022-09-24T10:03:27.327Z,100.00
2022-09-24T10:05:57.960Z,100.00
2022-09-24T10:08:26.927Z,100.00
2022-09-24T10:10:57.077Z,99.25
2022-09-24T10:13:25.889Z,98.29
2022-09-24T10:15:55.958Z,97.97
2022-09-24T10:18:30.442Z,97.83
2022-09-24T10:20:59.013Z,97.43
2022-09-24T10:23:35.576Z,96.10
2022-09-24T10:26:06.544Z,97.66
2022-09-24T10:28:53.711Z,96.81
2022-09-24T10:31:24.463Z,95.91
2022-09-24T10:33:56.459Z,96.75
2022-09-24T10:36:26.210Z,97.61
2022-09-24T10:39:04.843Z,97.95
2022-09-24T10:41:34.683Z,98.54
2022-09-24T10:44:06.289Z,98.97
2022-09-24T10:46:50.162Z,97.99
2022-09-24T10:49:31.987Z,98.01
2022-09-24T10:52:10.830Z,99.18
2022-09-24T10:54:56.330Z,99.97
2022-09-24T10:57:32.937Z,98.89
2022-09-24T11:00:09.169Z,97.58
2022-09-24T11:03:12.105Z,96.92
2022-09-24T11:05:46.190Z,98.20
2022-09-24T11:08:26.335Z,96.78
2022-09-24T11:11:18.782Z,97.98
2022-09-24T11:14:02.193Z,97.63
2022-09-24T11:16:45.305Z,96.17
2022-09-24T11:19:24.261Z,96.50
2022-09-24T11:22:12.634Z,93.72
2022-09-24T11:24:53.501Z,92.93
2022-09-24T11:27:38.726Z,93.60
2022-09-24T11:30:13.213Z,95.71
2022-09-24T11:32:57.284Z,96.89
2022-09-24T11:35:46.293Z,93.85
2022-09-24T11:38:19.163Z,92.33
2022-09-24T11:41:05.411Z,90.23
2022-09-24T11:44:27.150Z,91.33
2022-09-24T11:47:10.513Z,90.53
2022-09-24T11:49:55.888Z,91.12
2022-09-24T11:52:32.881Z,90.71
2022-09-24T11:55:11.229Z,89.38
2022-09-24T11:57:45.511Z,89.92
2022-09-24T12:00:17.837Z,89.83
2022-09-24T12:02:51.254Z,89.81
2022-09-24T12:05:28.510Z,89.61
2022-09-24T12:08:01.321Z,88.84
2022-09-24T12:10:36.095Z,88.11
2022-09-24T12:13:13.460Z,84.23
2022-09-24T12:15:52.789Z,81.68
2022-09-24T12:18:27.358Z,84.10
2022-09-24T12:21:01.723Z,82.77
2022-09-24T12:23:33.114Z,83.03
2022-09-24T12:26:03.992Z,82.69
2022-09-24T12:28:59.629Z,83.78
2022-09-24T12:31:50.908Z,84.13
2022-09-24T12:34:29.196Z,84.50
2022-09-24T12:37:02.336Z,85.81
2022-09-24T12:39:37.632Z,85.97
2022-09-24T12:42:09.169Z,84.31
2022-09-24T12:44:44.185Z,81.75
2022-09-24T12:47:19.964Z,82.78
2022-09-24T12:49:55.744Z,84.32
2022-09-24T12:52:27.793Z,83.08
2022-09-24T12:55:00.492Z,82.88
2022-09-24T12:57:32.217Z,83.98
2022-09-24T13:00:02.298Z,81.52
2022-09-24T13:02:33.251Z,80.89
2022-09-24T13:05:28.284Z,80.02
2022-09-24T13:07:59.490Z,79.39
2022-09-24T13:10:29.901Z,80.85
2022-09-24T13:13:00.008Z,79.87
2022-09-24T13:15:34.207Z,77.61
2022-09-24T13:18:19.396Z,77.30
2022-09-24T13:21:01.252Z,76.15
2022-09-24T13:23:35.385Z,76.72
2022-09-24T13:26:06.086Z,75.65
2022-09-24T13:28:51.436Z,73.77
2022-09-24T13:31:26.785Z,72.65
2022-09-24T13:33:58.457Z,73.32
2022-09-24T13:36:34.740Z,71.97
2022-09-24T13:39:06.143Z,72.63
2022-09-24T13:41:46.531Z,72.07
2022-09-24T13:44:20.297Z,72.78
2022-09-24T13:46:55.161Z,73.66
2022-09-24T13:49:24.841Z,74.64
2022-09-24T13:52:07.086Z,72.20
2022-09-24T13:54:39.813Z,74.62
2022-09-24T13:57:13.741Z,74.18
2022-09-24T13:59:41.845Z,76.81
2022-09-24T14:02:26.949Z,78.17
2022-09-24T14:04:57.439Z,76.80
2022-09-24T14:07:28.612Z,75.02
2022-09-24T14:10:06.094Z,75.45
2022-09-24T14:12:34.486Z,73.44
2022-09-24T14:15:06.095Z,73.63
2022-09-24T14:17:35.189Z,72.66
2022-09-24T14:20:03.551Z,70.38
2022-09-24T14:22:38.855Z,71.36
2022-09-24T14:25:11.073Z,70.37
2022-09-24T14:27:44.585Z,70.76
2022-09-24T14:30:20.442Z,69.70
2022-09-24T14:32:52.603Z,70.51
2022-09-24T14:35:29.609Z,71.44
2022-09-24T14:38:06.206Z,71.87
2022-09-24T14:40:43.177Z,72.38
2022-09-24T14:43:19.077Z,73.74
2022-09-24T14:45:48.091Z,73.78
2022-09-24T14:48:26.093Z,73.17
2022-09-24T14:50:54.170Z,74.69
2022-09-24T14:53:27.090Z,75.24
2022-09-24T14:55:55.270Z,75.67
2022-09-24T14:58:37.456Z,77.57
2022-09-24T15:01:13.946Z,77.08
2022-09-24T15:03:44.531Z,76.64
2022-09-24T15:06:21.266Z,76.82
2022-09-24T15:09:00.700Z,78.10
2022-09-24T15:11:31.456Z,77.06
2022-09-24T15:14:02.006Z,77.92
2022-09-24T15:16:33.662Z,76.54
2022-09-24T15:19:20.075Z,77.92
2022-09-24T15:21:49.665Z,76.24
2022-09-24T15:24:20.516Z,75.45
2022-09-24T15:26:50.882Z,74.65
2022-09-24T15:29:24.569Z,73.57
2022-09-24T15:31:52.692Z,74.49
2022-09-24T15:34:20.714Z,72.60
2022-09-24T15:36:49.498Z,72.07
2022-09-24T15:39:20.455Z,72.02
2022-09-24T15:41:48.582Z,71.47
2022-09-24T15:44:22.980Z,71.39
2022-09-24T15:46:52.171Z,70.98
2022-09-24T15:49:22.286Z,70.11
2022-09-24T15:51:52.677Z,69.00
2022-09-24T15:54:24.743Z,68.95
2022-09-24T15:56:53.047Z,68.98
2022-09-24T15:59:22.671Z,69.70
2022-09-24T16:01:53.494Z,68.90
2022-09-24T16:04:21.881Z,69.35
2022-09-24T16:06:50.295Z,68.45
2022-09-24T16:09:18.383Z,67.51
2022-09-24T16:11:47.928Z,68.13
2022-09-24T16:14:15.884Z,67.87
2022-09-24T16:16:43.817Z,67.61
2022-09-24T16:19:12.591Z,67.65
2022-09-24T16:21:40.810Z,67.33
2022-09-24T16:24:08.767Z,67.99
2022-09-24T16:26:37.403Z,67.34
2022-09-24T16:29:10.068Z,68.46
2022-09-24T16:31:38.167Z,70.01
2022-09-24T16:34:06.157Z,70.22
2022-09-24T16:36:34.066Z,70.13
2022-09-24T16:39:02.183Z,69.97
2022-09-24T16:41:34.286Z,71.76
2022-09-24T16:44:02.403Z,74.36
2022-09-24T16:46:32.126Z,74.77
2022-09-24T16:49:00.098Z,75.93
2022-09-24T16:51:28.122Z,77.24
2022-09-24T16:53:56.571Z,78.27
2022-09-24T16:56:24.721Z,79.00
2022-09-24T16:58:52.930Z,79.18
2022-09-24T17:01:22.822Z,79.84
2022-09-24T17:03:56.774Z,80.45
2022-09-24T17:06:26.846Z,81.34
2022-09-24T17:09:12.677Z,81.95
2022-09-24T17:11:41.257Z,82.03
2022-09-24T17:14:12.380Z,82.26
2022-09-24T17:16:41.208Z,84.14
2022-09-24T17:19:11.864Z,83.92
2022-09-24T17:21:42.406Z,84.04
2022-09-24T17:24:11.223Z,84.24
2022-09-24T17:26:39.555Z,84.70
2022-09-24T17:29:07.663Z,85.25
2022-09-24T17:31:35.645Z,84.28
2022-09-24T17:34:06.036Z,82.69
2022-09-24T17:36:36.223Z,83.69
2022-09-24T17:39:04.523Z,84.67
2022-09-24T17:41:32.572Z,84.96
2022-09-24T17:44:00.765Z,85.49
2022-09-24T17:46:30.455Z,85.84
2022-09-24T17:48:59.804Z,86.13
2022-09-24T17:51:32.618Z,86.48
2022-09-24T17:54:03.531Z,86.61
2022-09-24T17:56:33.262Z,86.87
2022-09-24T17:59:01.579Z,87.17
2022-09-24T18:01:33.537Z,87.19
2022-09-24T18:04:01.743Z,87.20
2022-09-24T18:06:33.176Z,87.36
2022-09-24T18:09:03.301Z,87.54
2022-09-24T18:11:33.216Z,87.75
2022-09-24T18:14:03.294Z,88.12
2022-09-24T18:16:33.033Z,88.66
2022-09-24T18:19:02.413Z,89.30
2022-09-24T18:21:32.021Z,89.47
2022-09-24T18:24:02.835Z,89.64
2022-09-24T18:26:34.246Z,90.02
2022-09-24T18:29:05.858Z,89.41
2022-09-24T18:31:35.111Z,89.87
2022-09-24T18:34:06.189Z,88.95
2022-09-24T18:36:36.055Z,88.43
2022-09-24T18:39:07.236Z,88.43
2022-09-24T18:41:36.988Z,88.46
2022-09-24T18:44:05.559Z,88.52
2022-09-24T18:46:34.670Z,87.85
2022-09-24T18:49:03.210Z,87.76
2022-09-24T18:51:32.881Z,87.29
2022-09-24T18:54:03.002Z,88.72
2022-09-24T18:56:32.912Z,89.61
2022-09-24T18:59:07.141Z,90.25
2022-09-24T19:01:37.024Z,90.54
2022-09-24T19:04:05.562Z,90.63
2022-09-24T19:06:36.160Z,90.72
2022-09-24T19:09:05.971Z,90.78
2022-09-24T19:11:36.151Z,91.06
2022-09-24T19:14:04.537Z,91.24
2022-09-24T19:16:32.945Z,91.17
2022-09-24T19:19:02.435Z,91.40
2022-09-24T19:21:30.783Z,91.83
2022-09-24T19:23:59.613Z,91.27
2022-09-24T19:26:29.616Z,91.09
2022-09-24T19:28:59.290Z,91.21
2022-09-24T19:31:29.936Z,91.42
2022-09-24T19:33:58.591Z,91.36
2022-09-24T19:36:26.504Z,91.25
2022-09-24T19:38:54.776Z,91.44
2022-09-24T19:41:25.147Z,90.78
2022-09-24T19:43:54.061Z,90.66
2022-09-24T19:46:25.663Z,91.80
2022-09-24T19:48:54.853Z,94.15
2022-09-24T19:51:24.893Z,94.58
2022-09-24T19:53:54.584Z,93.92
2022-09-24T19:56:25.354Z,93.41
2022-09-24T19:58:54.716Z,92.78
2022-09-24T20:01:26.184Z,92.37
2022-09-24T20:03:54.186Z,92.96
2022-09-24T20:06:24.117Z,93.64
2022-09-24T20:08:52.726Z,93.14
2022-09-24T20:11:22.438Z,92.83
2022-09-24T20:13:51.975Z,92.11
2022-09-24T20:16:21.862Z,92.09
2022-09-24T20:18:53.866Z,91.73
2022-09-24T20:21:21.784Z,91.92
2022-09-24T20:23:50.284Z,92.49
2022-09-24T20:26:36.031Z,92.49
2022-09-24T20:29:07.049Z,92.10
2022-09-24T20:31:35.066Z,91.90
2022-09-24T20:34:05.093Z,91.39
2022-09-24T20:36:33.153Z,91.22
2022-09-24T20:39:01.059Z,91.25
2022-09-24T20:41:29.024Z,91.35
2022-09-24T20:43:56.943Z,91.31
2022-09-24T20:46:27.734Z,91.29
2022-09-24T20:48:58.587Z,91.60
2022-09-24T20:51:29.861Z,91.71
2022-09-24T20:53:59.970Z,92.30
2022-09-24T20:56:30.638Z,92.43
2022-09-24T20:59:00.964Z,92.85
2022-09-24T21:01:29.123Z,92.89
2022-09-24T21:03:58.363Z,93.05
2022-09-24T21:06:27.870Z,92.78
2022-09-24T21:08:55.807Z,92.59
2022-09-24T21:11:26.556Z,91.72
2022-09-24T21:13:57.081Z,92.05
2022-09-24T21:16:28.934Z,91.76
2022-09-24T21:18:57.053Z,91.68
2022-09-24T21:21:28.765Z,91.80
2022-09-24T21:23:58.882Z,91.67
2022-09-24T21:26:28.549Z,92.28
2022-09-24T21:28:59.677Z,92.47
2022-09-24T21:31:29.879Z,92.65
2022-09-24T21:33:57.807Z,92.64
2022-09-24T21:36:29.438Z,93.62
2022-09-24T21:38:58.939Z,94.51
2022-09-24T21:41:28.969Z,95.03
2022-09-24T21:43:57.605Z,96.74
2022-09-24T21:46:27.089Z,96.86
2022-09-24T21:48:56.585Z,96.19
2022-09-24T21:51:26.928Z,96.12
2022-09-24T21:54:01.702Z,96.67
2022-09-24T21:56:30.199Z,95.45
2022-09-24T21:58:59.227Z,96.69
2022-09-24T22:01:29.376Z,98.47
2022-09-24T22:03:59.105Z,98.53
2022-09-24T22:06:28.951Z,100.00
2022-09-24T22:09:02.587Z,100.00
2022-09-24T22:11:31.195Z,100.00
2022-09-24T22:14:01.340Z,100.00
2022-09-24T22:16:30.415Z,100.00
2022-09-24T22:18:58.604Z,100.00
2022-09-24T22:21:27.177Z,100.00
2022-09-24T22:23:56.018Z,99.11
2022-09-24T22:26:26.375Z,98.20
2022-09-24T22:28:55.231Z,99.71
2022-09-24T22:31:23.600Z,100.00
2022-09-24T22:34:09.566Z,100.00
2022-09-24T22:36:37.670Z,99.97
2022-09-24T22:39:06.974Z,99.68
2022-09-24T22:41:38.766Z,99.99
2022-09-24T22:44:07.405Z,99.48
2022-09-24T22:46:39.684Z,98.95
2022-09-24T22:49:08.223Z,97.80
2022-09-24T22:51:40.178Z,96.90
2022-09-24T22:54:09.703Z,97.37
2022-09-24T22:56:39.224Z,97.23
2022-09-24T22:59:07.537Z,97.42
2022-09-24T23:01:40.355Z,97.76
2022-09-24T23:04:08.614Z,98.09
2022-09-24T23:06:37.326Z,97.25
2022-09-24T23:09:06.314Z,96.54
2022-09-24T23:11:35.832Z,97.13
2022-09-24T23:14:06.997Z,98.29
2022-09-24T23:16:36.864Z,98.56
2022-09-24T23:19:07.459Z,98.24
2022-09-24T23:21:36.059Z,97.87
2022-09-24T23:24:07.060Z,97.47
2022-09-24T23:26:35.674Z,97.25
2022-09-24T23:29:05.085Z,96.71
2022-09-24T23:31:34.327Z,97.76
2022-09-24T23:34:03.144Z,97.78
2022-09-24T23:36:32.883Z,98.17
2022-09-24T23:39:01.708Z,98.78
2022-09-24T23:41:31.589Z,98.79
2022-09-24T23:43:59.650Z,99.28
2022-09-24T23:46:29.600Z,98.06
2022-09-24T23:48:57.960Z,98.69
2022-09-24T23:51:26.465Z,98.23
2022-09-24T23:53:54.527Z,98.89
2022-09-24T23:56:22.683Z,100.00
2022-09-24T23:58:50.895Z,99.61
